createdAt,value
2023-01-27T00:00:10.479Z,39.80
2023-01-27T00:03:04.107Z,46.10
2023-01-27T00:05:36.933Z,39.40
2023-01-27T00:08:49.463Z,48.90
2023-01-27T00:11:40.365Z,47.70
2023-01-27T00:17:07.489Z,47.00
2023-01-27T00:19:39.069Z,58.60
2023-01-27T00:22:28.709Z,58.80
2023-01-27T00:25:00.754Z,48.60
2023-01-27T00:27:34.554Z,42.80
2023-01-27T00:30:09.165Z,38.90
2023-01-27T00:32:57.975Z,49.20
2023-01-27T00:35:27.654Z,52.30
2023-01-27T00:38:00.292Z,56.30
2023-01-27T00:40:32.413Z,51.60
2023-01-27T00:43:05.434Z,51.50
2023-01-27T00:45:49.216Z,51.40
2023-01-27T00:48:19.261Z,56.70
2023-01-27T00:50:49.642Z,44.90
2023-01-27T00:53:20.155Z,41.10
2023-01-27T00:55:51.454Z,49.70
2023-01-27T00:58:22.823Z,50.00
2023-01-27T01:00:56.431Z,53.90
2023-01-27T01:03:32.709Z,51.80
2023-01-27T01:06:06.147Z,64.00
2023-01-27T01:11:10.648Z,44.00
2023-01-27T01:13:44.304Z,57.10
2023-01-27T01:16:17.900Z,47.70
2023-01-27T01:18:48.932Z,57.10
2023-01-27T01:21:21.433Z,46.70
2023-01-27T01:23:51.979Z,53.70
2023-01-27T01:26:23.156Z,47.60
2023-01-27T01:28:53.760Z,47.40
2023-01-27T01:31:26.514Z,49.30
2023-01-27T01:33:58.373Z,54.30
2023-01-27T01:36:36.108Z,52.00
2023-01-27T01:39:08.568Z,56.00
2023-01-27T01:41:41.684Z,48.10
2023-01-27T01:44:28.607Z,54.40
2023-01-27T01:46:59.056Z,62.80
2023-01-27T01:49:32.474Z,51.70
2023-01-27T01:52:11.783Z,60.40
2023-01-27T01:54:55.498Z,56.40
2023-01-27T01:57:37.888Z,55.10
2023-01-27T02:00:11.868Z,68.10
2023-01-27T02:02:48.429Z,66.70
2023-01-27T02:05:33.800Z,57.40
2023-01-27T02:08:17.922Z,55.30
2023-01-27T02:10:50.869Z,66.80
2023-01-27T02:13:22.325Z,54.80
2023-01-27T02:15:54.345Z,60.40
2023-01-27T02:18:27.045Z,54.20
2023-01-27T02:21:02.652Z,50.20
2023-01-27T02:24:11.203Z,63.40
2023-01-27T02:26:46.981Z,66.00
2023-01-27T02:29:20.627Z,62.60
2023-01-27T02:31:53.344Z,58.30
2023-01-27T02:34:29.093Z,60.40
2023-01-27T02:38:19.189Z,68.50
2023-01-27T02:40:54.529Z,60.50
2023-01-27T02:43:26.244Z,56.60
2023-01-27T02:45:57.356Z,53.30
2023-01-27T02:48:28.372Z,57.90
2023-01-27T02:51:04.572Z,70.80
2023-01-27T02:53:36.681Z,59.90
2023-01-27T02:56:10.901Z,61.60
2023-01-27T02:58:42.607Z,69.80
2023-01-27T03:01:19.728Z,60.00
2023-01-27T03:03:52.830Z,65.50
2023-01-27T03:06:23.869Z,59.60
2023-01-27T03:08:54.271Z,55.70
2023-01-27T03:11:43.595Z,59.80
2023-01-27T03:14:16.892Z,57.30
2023-01-27T03:17:27.851Z,67.40
2023-01-27T03:19:58.723Z,63.20
2023-01-27T03:22:30.166Z,54.30
2023-01-27T03:25:01.992Z,55.40
2023-01-27T03:27:33.252Z,49.80
2023-01-27T03:30:39.977Z,56.90
2023-01-27T03:33:16.551Z,46.90
2023-01-27T03:36:15.087Z,66.10
2023-01-27T03:39:09.678Z,51.30
2023-01-27T03:42:00.557Z,60.00
2023-01-27T03:44:51.812Z,63.90
2023-01-27T03:47:27.562Z,65.90
2023-01-27T03:49:57.648Z,48.50
2023-01-27T03:52:29.073Z,48.80
2023-01-27T03:54:59.722Z,50.00
2023-01-27T03:57:28.790Z,60.30
2023-01-27T04:00:00.898Z,48.00
2023-01-27T04:02:52.476Z,50.40
2023-01-27T04:05:41.219Z,61.00
2023-01-27T04:08:15.579Z,47.70
2023-01-27T04:11:08.031Z,61.90
2023-01-27T04:13:40.177Z,45.40
2023-01-27T04:16:10.651Z,45.00
2023-01-27T04:18:42.745Z,46.40
2023-01-27T04:21:17.402Z,52.30
2023-01-27T04:23:50.226Z,45.40
2023-01-27T04:26:24.109Z,48.60
2023-01-27T04:28:55.754Z,47.10
2023-01-27T04:31:28.827Z,42.80
2023-01-27T04:34:01.050Z,48.00
2023-01-27T04:41:03.437Z,99.70
2023-01-27T04:43:37.136Z,245.10
2023-01-27T04:46:08.833Z,101.30
2023-01-27T04:48:40.754Z,135.90
2023-01-27T04:51:12.089Z,63.60
2023-01-27T04:53:42.919Z,69.50
2023-01-27T04:56:23.003Z,79.30
2023-01-27T04:58:54.103Z,76.40
2023-01-27T05:01:25.553Z,70.80
2023-01-27T05:03:55.660Z,97.90
2023-01-27T05:06:27.959Z,82.50
2023-01-27T05:09:00.086Z,69.50
2023-01-27T05:11:30.086Z,82.40
2023-01-27T05:13:59.728Z,78.00
2023-01-27T05:16:31.521Z,85.50
2023-01-27T05:19:02.475Z,78.20
2023-01-27T05:21:35.337Z,77.20
2023-01-27T05:24:07.986Z,101.30
2023-01-27T05:26:39.035Z,83.50
2023-01-27T05:29:13.595Z,73.20
2023-01-27T05:31:46.274Z,84.80
2023-01-27T05:34:19.535Z,91.00
2023-01-27T05:36:53.573Z,67.10
2023-01-27T05:39:27.882Z,61.60
2023-01-27T05:41:59.799Z,79.60
2023-01-27T05:44:31.605Z,73.70
2023-01-27T05:47:04.094Z,76.40
2023-01-27T05:49:36.259Z,85.20
2023-01-27T05:52:09.471Z,83.00
2023-01-27T05:54:40.790Z,99.20
2023-01-27T05:57:29.466Z,88.40
2023-01-27T06:00:51.961Z,86.20
2023-01-27T06:03:30.476Z,74.50
2023-01-27T06:06:10.302Z,61.10
2023-01-27T06:09:06.161Z,73.10
2023-01-27T06:11:42.413Z,78.50
2023-01-27T06:14:28.657Z,64.10
2023-01-27T06:17:30.562Z,61.40
2023-01-27T06:20:16.617Z,55.20
2023-01-27T06:22:51.379Z,59.90
2023-01-27T06:25:25.059Z,67.40
2023-01-27T06:28:55.638Z,59.90
2023-01-27T06:35:05.770Z,68.60
2023-01-27T06:39:12.902Z,62.40
2023-01-27T06:42:01.305Z,60.70
2023-01-27T06:44:35.205Z,56.70
2023-01-27T06:47:44.516Z,59.00
2023-01-27T06:50:16.226Z,57.20
2023-01-27T06:53:08.512Z,65.00
2023-01-27T06:56:04.543Z,83.80
2023-01-27T06:58:40.466Z,70.00
2023-01-27T07:01:35.412Z,73.40
2023-01-27T07:04:21.165Z,68.10
2023-01-27T07:06:50.777Z,60.50
2023-01-27T07:09:26.367Z,57.00
2023-01-27T07:12:01.659Z,62.90
2023-01-27T07:14:32.556Z,61.30
2023-01-27T07:17:04.585Z,68.40
2023-01-27T07:19:46.267Z,62.90
2023-01-27T07:22:21.541Z,53.30
2023-01-27T07:25:04.371Z,52.80
2023-01-27T07:27:39.321Z,51.40
2023-01-27T07:33:53.504Z,52.80
2023-01-27T07:40:13.043Z,79.60
2023-01-27T07:42:45.828Z,58.10
2023-01-27T07:45:27.749Z,66.40
2023-01-27T07:48:26.212Z,57.30
2023-01-27T07:51:30.763Z,50.40
2023-01-27T07:55:01.083Z,63.30
2023-01-27T07:58:17.875Z,58.60
2023-01-27T08:01:52.191Z,60.60
2023-01-27T08:08:24.743Z,50.70
2023-01-27T08:12:09.858Z,41.90
2023-01-27T08:19:21.145Z,46.80
2023-01-27T08:28:51.949Z,40.80
2023-01-27T08:32:32.417Z,37.00
2023-01-27T08:36:02.866Z,34.60
2023-01-27T08:39:41.428Z,35.10
2023-01-27T08:43:26.104Z,45.00
2023-01-27T08:46:42.552Z,42.40
2023-01-27T08:53:35.805Z,52.80
2023-01-27T10:36:24.975Z,56.50
2023-01-27T10:43:24.034Z,56.50
2023-01-27T11:06:27.290Z,52.20
2023-01-27T11:13:01.287Z,52.00
2023-01-27T11:16:24.389Z,54.70
2023-01-27T11:26:27.832Z,45.90
2023-01-27T11:49:13.404Z,35.60
2023-01-27T11:52:14.200Z,45.50
2023-01-27T11:55:27.272Z,47.90
2023-01-27T11:59:17.377Z,37.70
2023-01-27T12:01:57.808Z,49.10
2023-01-27T12:08:10.033Z,51.90
2023-01-27T12:11:36.670Z,49.20
2023-01-27T12:14:42.266Z,53.20
2023-01-27T12:21:03.189Z,36.70
2023-01-27T12:25:09.902Z,42.90
2023-01-27T12:38:46.719Z,28.90
2023-01-27T12:42:13.348Z,39.60
2023-01-27T12:45:55.969Z,31.00
2023-01-27T12:49:26.880Z,28.50
2023-01-27T12:56:20.255Z,26.40
2023-01-27T12:59:29.748Z,55.40
2023-01-27T13:02:48.249Z,32.30
2023-01-27T13:06:40.076Z,26.90
2023-01-27T13:10:35.191Z,31.30
2023-01-27T13:13:49.992Z,33.90
2023-01-27T13:17:20.336Z,20.20
2023-01-27T13:20:49.159Z,25.70
2023-01-27T13:24:11.261Z,24.50
2023-01-27T13:27:48.183Z,15.30
2023-01-27T13:31:01.437Z,29.60
2023-01-27T13:38:31.849Z,30.40
2023-01-27T14:02:10.296Z,32.10
2023-01-27T14:08:51.569Z,21.90
2023-01-27T14:22:01.102Z,27.20
2023-01-27T14:25:31.919Z,29.60
2023-01-27T14:29:24.412Z,25.10
2023-01-27T15:04:48.456Z,18.70
2023-01-27T15:28:06.628Z,14.60
2023-01-27T15:47:54.170Z,15.10
2023-01-27T16:24:29.008Z,25.20
2023-01-27T16:28:05.756Z,31.10
2023-01-27T16:35:01.826Z,13.20
2023-01-27T16:54:24.051Z,17.50
2023-01-27T17:17:21.458Z,13.50
2023-01-27T17:36:45.378Z,14.50
2023-01-27T17:40:16.492Z,12.10
2023-01-27T17:46:51.100Z,10.70
2023-01-27T18:07:38.115Z,15.30
2023-01-27T18:11:18.005Z,7.60
2023-01-27T18:15:08.211Z,10.20
2023-01-27T18:19:10.570Z,6.40
2023-01-27T19:36:43.183Z,7.20
